Time;durP1;ratioP1;P1;durP2;ratioP2;P2;SDS_P1;SDS_P2;PMS_P1;PMS_P2;Temp;Humidity;BMP_temperature;BMP_pressure;BME280_temperature;BME280_humidity;BME280_pressure;Samples;Min_cycle;Max_cycle;Signal;HPM_P1;HPM_P2
2021/06/03 00:02:34;;;;;;;3.30;3.00;;;17.80;68.90;;;;;;10366084;28;20213;-22
2021/06/03 00:07:57;;;;;;;3.80;3.47;;;17.80;69.00;;;;;;10359672;28;20202;-22
2021/06/03 00:13:20;;;;;;;3.23;2.90;;;17.80;69.10;;;;;;10364391;28;20574;-23
2021/06/03 00:18:44;;;;;;;3.93;2.90;;;17.80;69.00;;;;;;10365844;28;20224;-22
2021/06/03 00:24:06;;;;;;;3.57;3.17;;;17.80;69.00;;;;;;10365090;28;20704;-23
2021/06/03 00:29:28;;;;;;;3.97;2.93;;;17.80;69.00;;;;;;10365922;28;20206;-22
2021/06/03 00:34:51;;;;;;;3.20;2.90;;;17.80;69.30;;;;;;10364563;28;20275;-22
2021/06/03 00:40:16;;;;;;;3.77;2.97;;;17.80;69.00;;;;;;10364655;28;20194;-22
2021/06/03 00:45:40;;;;;;;2.57;2.20;;;17.80;69.20;;;;;;10362497;28;20201;-22
2021/06/03 00:51:05;;;;;;;4.07;2.77;;;17.80;69.10;;;;;;10365850;28;20265;-22
2021/06/03 00:56:27;;;;;;;3.37;2.50;;;17.80;69.00;;;;;;10364169;28;20700;-22
2021/06/03 01:01:48;;;;;;;3.03;2.70;;;17.80;69.20;;;;;;10347051;28;20248;-23
2021/06/03 01:07:11;;;;;;;3.10;2.90;;;17.80;69.10;;;;;;10353021;28;20204;-21
2021/06/03 01:12:38;;;;;;;2.93;2.63;;;17.80;69.20;;;;;;10363304;28;20217;-23
2021/06/03 01:18:04;;;;;;;3.07;2.43;;;17.80;69.10;;;;;;10364168;28;20309;-23
2021/06/03 01:23:32;;;;;;;3.10;2.80;;;17.80;69.10;;;;;;10363242;28;20287;-22
2021/06/03 01:28:55;;;;;;;2.80;2.50;;;17.80;69.00;;;;;;10363466;28;20187;-22
2021/06/03 01:34:19;;;;;;;3.30;3.00;;;17.80;69.00;;;;;;10354356;28;20231;-22
2021/06/03 01:39:43;;;;;;;3.67;2.97;;;17.80;69.10;;;;;;10364131;28;20198;-24
2021/06/03 01:45:08;;;;;;;3.60;2.80;;;17.80;69.00;;;;;;10353708;28;20604;-22
2021/06/03 01:50:30;;;;;;;4.13;3.07;;;17.80;68.80;;;;;;10363556;28;20623;-22
2021/06/03 01:55:52;;;;;;;3.97;3.13;;;17.80;68.90;;;;;;10365014;28;20691;-22
2021/06/03 02:01:18;;;;;;;3.70;2.77;;;17.80;68.90;;;;;;10370556;28;20654;-22
2021/06/03 02:06:40;;;;;;;3.57;2.93;;;17.80;68.90;;;;;;10367327;28;20191;-22
2021/06/03 02:12:02;;;;;;;4.07;2.97;;;17.80;68.80;;;;;;10368501;28;20225;-22
2021/06/03 02:17:29;;;;;;;3.00;2.70;;;17.80;68.80;;;;;;10370277;28;20225;-23
2021/06/03 02:22:52;;;;;;;4.30;3.07;;;17.80;68.70;;;;;;10369186;28;20704;-22
2021/06/03 02:28:15;;;;;;;4.70;3.17;;;17.80;68.70;;;;;;10369578;28;20201;-22
2021/06/03 02:33:39;;;;;;;5.57;3.03;;;17.80;68.60;;;;;;10362193;28;20218;-22
2021/06/03 02:39:03;;;;;;;3.33;3.03;;;17.80;68.60;;;;;;10368204;28;20300;-22
2021/06/03 02:44:25;;;;;;;5.00;3.10;;;17.80;69.10;;;;;;10366939;28;20230;-23
2021/06/03 02:49:48;;;;;;;3.67;3.20;;;17.80;68.60;;;;;;10369087;28;20205;-22
2021/06/03 02:55:12;;;;;;;4.90;3.10;;;17.80;68.50;;;;;;10368457;28;20267;-22
2021/06/03 03:00:36;;;;;;;4.03;3.30;;;17.80;68.50;;;;;;10369565;28;20197;-22
2021/06/03 03:05:59;;;;;;;3.00;2.80;;;17.80;68.50;;;;;;10367175;28;20194;-22
2021/06/03 03:11:21;;;;;;;3.50;3.07;;;17.80;68.50;;;;;;10363710;28;20230;-22
2021/06/03 03:16:42;;;;;;;5.60;3.60;;;17.80;68.40;;;;;;10366851;28;20275;-22
2021/06/03 03:22:06;;;;;;;4.27;3.30;;;17.80;68.50;;;;;;10410730;22;20239;-25
2021/06/03 03:27:27;;;;;;;3.43;3.13;;;17.80;68.40;;;;;;10475252;28;20693;-22
2021/06/03 03:32:49;;;;;;;4.83;3.13;;;17.80;68.30;;;;;;10459646;28;20705;-23
2021/06/03 03:38:12;;;;;;;4.10;3.70;;;17.80;68.50;;;;;;10457557;28;20216;-26
2021/06/03 03:43:34;;;;;;;4.07;2.80;;;17.80;68.30;;;;;;10468565;28;20222;-23
2021/06/03 03:48:55;;;;;;;7.20;3.80;;;17.70;68.30;;;;;;10416189;28;20686;-26
2021/06/03 03:54:18;;;;;;;4.97;3.90;;;17.80;68.30;;;;;;10494472;28;20219;-23
2021/06/03 03:59:40;;;;;;;5.57;3.70;;;17.80;68.30;;;;;;10424094;28;20200;-22
2021/06/03 04:05:01;;;;;;;3.93;3.27;;;17.80;68.40;;;;;;10460410;28;20721;-22
2021/06/03 04:10:24;;;;;;;3.67;3.33;;;17.80;68.60;;;;;;10475363;28;20627;-24
2021/06/03 04:15:46;;;;;;;3.93;3.53;;;17.70;68.50;;;;;;10452557;28;20794;-23
2021/06/03 04:21:08;;;;;;;4.93;3.60;;;17.80;68.40;;;;;;10471267;28;20206;-23
2021/06/03 04:26:30;;;;;;;4.93;3.43;;;17.70;68.50;;;;;;10461124;28;20579;-22
2021/06/03 04:31:52;;;;;;;4.10;3.00;;;17.70;68.50;;;;;;10467451;28;20225;-25
2021/06/03 04:37:14;;;;;;;5.40;3.97;;;17.80;68.60;;;;;;10463887;28;20690;-22
2021/06/03 04:42:37;;;;;;;4.17;3.40;;;17.80;68.80;;;;;;10491837;28;20215;-23
2021/06/03 04:47:59;;;;;;;4.13;3.40;;;17.80;68.70;;;;;;10458911;28;20200;-22
2021/06/03 04:53:20;;;;;;;4.77;3.67;;;17.80;68.90;;;;;;10452624;28;20215;-22
2021/06/03 04:58:43;;;;;;;3.70;3.30;;;17.80;68.80;;;;;;10489799;28;20584;-25
2021/06/03 05:04:05;;;;;;;4.17;3.20;;;17.80;68.80;;;;;;10472424;28;20224;-21
2021/06/03 05:09:26;;;;;;;4.37;3.40;;;17.80;68.90;;;;;;10474503;28;20702;-22
2021/06/03 05:14:49;;;;;;;4.30;3.90;;;17.80;69.10;;;;;;10457723;28;20597;-22
2021/06/03 05:20:14;;;;;;;5.90;4.57;;;17.80;68.40;;;;;;10445813;28;20208;-22
2021/06/03 05:25:35;;;;;;;5.30;3.97;;;17.80;68.30;;;;;;10483000;28;20228;-21
2021/06/03 05:30:58;;;;;;;5.47;4.27;;;17.80;68.60;;;;;;10493676;28;20195;-27
2021/06/03 05:36:20;;;;;;;4.37;3.97;;;17.90;68.60;;;;;;10458913;28;20290;-23
2021/06/03 05:41:43;;;;;;;6.37;3.97;;;17.90;68.80;;;;;;10459269;28;20216;-22
2021/06/03 05:47:06;;;;;;;5.57;4.23;;;17.90;68.20;;;;;;10491681;28;20193;-24
2021/06/03 05:52:28;;;;;;;4.07;3.67;;;17.90;68.30;;;;;;10499037;28;20719;-25
2021/06/03 05:57:50;;;;;;;4.67;3.67;;;18.00;68.10;;;;;;10498628;28;20223;-22
2021/06/03 06:03:16;;;;;;;6.17;3.93;;;18.00;68.10;;;;;;10482339;28;20227;-22
2021/06/03 06:08:38;;;;;;;5.90;3.50;;;18.10;68.30;;;;;;10463401;28;20197;-22
2021/06/03 06:14:00;;;;;;;6.20;3.97;;;18.00;68.60;;;;;;10456164;28;20220;-23
2021/06/03 06:19:23;;;;;;;4.40;3.50;;;18.00;69.00;;;;;;10457466;28;20262;-24
2021/06/03 06:24:45;;;;;;;4.97;3.60;;;18.00;69.30;;;;;;10456975;28;20700;-23
2021/06/03 06:30:09;;;;;;;6.27;3.67;;;18.10;68.80;;;;;;10495579;28;20671;-23
2021/06/03 06:35:32;;;;;;;3.50;3.20;;;18.10;69.40;;;;;;10457785;28;20213;-22
2021/06/03 06:40:55;;;;;;;8.60;3.20;;;18.10;69.30;;;;;;10456354;28;20196;-23
2021/06/03 06:46:16;;;;;;;4.80;3.13;;;18.10;69.30;;;;;;10453812;28;20223;-22
2021/06/03 06:51:39;;;;;;;5.40;3.07;;;18.10;69.40;;;;;;10454541;28;20242;-23
2021/06/03 06:57:01;;;;;;;4.00;3.30;;;18.20;69.20;;;;;;10473167;28;20219;-22
2021/06/03 07:02:23;;;;;;;5.60;3.87;;;18.20;69.50;;;;;;10454931;28;20217;-22
2021/06/03 07:07:46;;;;;;;5.23;3.43;;;18.20;69.40;;;;;;10457765;28;20669;-25
2021/06/03 07:13:07;;;;;;;5.07;2.83;;;18.20;69.40;;;;;;10453872;28;20228;-22
2021/06/03 07:18:29;;;;;;;4.00;3.13;;;18.20;69.40;;;;;;10452895;28;20679;-23
2021/06/03 07:23:52;;;;;;;4.57;3.57;;;18.20;69.50;;;;;;10469630;28;20228;-22
2021/06/03 07:29:14;;;;;;;5.30;3.37;;;18.20;69.00;;;;;;10481549;28;20199;-24
2021/06/03 07:34:36;;;;;;;5.47;3.33;;;18.30;69.30;;;;;;10489542;28;20600;-21
2021/06/03 07:39:59;;;;;;;6.73;3.37;;;18.30;69.00;;;;;;10451691;28;20619;-23
2021/06/03 07:45:23;;;;;;;4.43;3.50;;;18.30;69.20;;;;;;10453616;28;20221;-25
2021/06/03 07:50:45;;;;;;;10.10;3.50;;;18.30;69.50;;;;;;10453721;28;20335;-22
2021/06/03 07:56:08;;;;;;;3.10;2.90;;;18.30;69.20;;;;;;10452065;28;20580;-23
2021/06/03 08:01:30;;;;;;;4.43;3.00;;;18.40;69.40;;;;;;10466730;28;20223;-23
2021/06/03 08:06:51;;;;;;;4.43;3.20;;;18.30;68.90;;;;;;10472613;28;20211;-23
2021/06/03 08:12:14;;;;;;;3.47;3.17;;;18.30;68.90;;;;;;10453670;28;20216;-20
2021/06/03 08:17:36;;;;;;;4.70;3.07;;;18.30;69.50;;;;;;10424946;28;20223;-22
2021/06/03 08:22:58;;;;;;;4.63;3.03;;;18.30;69.10;;;;;;10451232;28;20229;-22
2021/06/03 08:28:22;;;;;;;3.57;3.27;;;18.30;69.40;;;;;;10453301;28;20254;-22
2021/06/03 08:33:44;;;;;;;4.13;2.83;;;18.30;69.30;;;;;;10450959;28;20220;-23
2021/06/03 08:39:07;;;;;;;3.30;2.63;;;18.30;69.70;;;;;;10453161;28;20268;-22
2021/06/03 08:44:30;;;;;;;3.80;3.20;;;18.30;69.40;;;;;;10450812;28;20236;-22
2021/06/03 08:49:51;;;;;;;3.00;2.70;;;18.30;69.40;;;;;;10451520;28;20204;-22
2021/06/03 09:00:54;;;;;;;3.63;3.30;;;18.30;69.60;;;;;;10445871;28;20275;-20
2021/06/03 09:06:16;;;;;;;3.70;2.70;;;18.30;69.30;;;;;;10454782;28;20189;-25
2021/06/03 09:11:38;;;;;;;3.50;2.90;;;18.30;69.40;;;;;;10459062;28;20216;-23
2021/06/03 09:17:01;;;;;;;4.10;2.87;;;18.40;69.20;;;;;;10481533;28;20220;-22
2021/06/03 09:22:38;;;;;;;5.33;2.70;;;18.30;68.70;;;;;;10458567;28;20239;-24
2021/06/03 09:28:21;;;;;;;6.13;3.13;;;18.30;68.80;;;;;;10582691;23;20234;-25
2021/06/03 09:33:50;;;;;;;4.67;2.80;;;18.30;68.70;;;;;;10583392;28;20190;-23
2021/06/03 09:39:20;;;;;;;5.23;2.97;;;18.40;68.70;;;;;;10544242;28;20679;-23
2021/06/03 09:44:47;;;;;;;3.17;2.80;;;18.40;69.00;;;;;;10576021;28;20226;-23
2021/06/03 09:50:11;;;;;;;2.97;2.67;;;18.40;70.00;;;;;;10581532;28;20191;-23
2021/06/03 09:55:33;;;;;;;3.93;3.40;;;18.40;69.20;;;;;;10579141;28;20586;-25
2021/06/03 10:00:54;;;;;;;3.57;3.00;;;18.40;68.70;;;;;;10565511;28;20662;-23
2021/06/03 10:06:17;;;;;;;3.90;3.17;;;18.40;69.20;;;;;;10581602;28;20214;-23
2021/06/03 10:11:46;;;;;;;3.73;2.93;;;18.40;69.20;;;;;;10579817;27;20232;-24
2021/06/03 10:17:17;;;;;;;9.77;3.13;;;18.40;69.20;;;;;;10580919;28;20248;-25
2021/06/03 10:22:42;;;;;;;3.90;2.70;;;18.40;69.20;;;;;;10579051;28;20199;-23
2021/06/03 10:28:06;;;;;;;3.00;2.73;;;18.40;69.40;;;;;;10581566;28;20218;-23
2021/06/03 10:33:31;;;;;;;3.67;3.07;;;18.40;69.10;;;;;;10579062;28;20198;-23
2021/06/03 10:38:56;;;;;;;2.90;2.70;;;18.40;69.20;;;;;;10581193;28;20215;-23
2021/06/03 10:44:18;;;;;;;5.57;3.10;;;18.40;69.30;;;;;;10565961;28;20211;-24
2021/06/03 10:49:40;;;;;;;3.33;3.03;;;18.40;69.30;;;;;;10574152;28;20191;-23
2021/06/03 10:55:06;;;;;;;3.33;3.03;;;18.40;69.60;;;;;;10572961;27;20608;-24
2021/06/03 11:00:30;;;;;;;3.47;2.97;;;18.40;69.10;;;;;;10579051;28;20661;-23
2021/06/03 11:06:02;;;;;;;4.37;2.93;;;18.40;69.50;;;;;;10578222;28;20668;-23
2021/06/03 11:11:30;;;;;;;5.30;3.20;;;18.40;69.90;;;;;;10578974;28;20681;-24
2021/06/03 11:16:53;;;;;;;5.37;3.63;;;18.40;69.40;;;;;;10577275;28;20611;-23
2021/06/03 11:22:24;;;;;;;4.87;3.37;;;18.40;69.80;;;;;;10577392;28;20183;-23
2021/06/03 11:27:47;;;;;;;4.03;3.20;;;18.40;69.50;;;;;;10567407;28;20388;-23
2021/06/03 11:33:09;;;;;;;4.73;3.13;;;18.40;70.00;;;;;;10577836;28;20191;-25
2021/06/03 11:38:40;;;;;;;4.63;3.00;;;18.40;69.90;;;;;;10578696;28;20297;-22
2021/06/03 11:44:12;;;;;;;3.50;3.20;;;18.40;69.80;;;;;;10577283;28;20222;-24
2021/06/03 11:49:38;;;;;;;3.03;2.73;;;18.40;69.90;;;;;;10578300;28;20187;-22
2021/06/03 11:55:01;;;;;;;2.83;2.53;;;18.40;70.10;;;;;;10577692;28;20578;-23
2021/06/03 12:00:38;;;;;;;3.73;3.30;;;18.40;69.30;;;;;;10565699;28;20217;-23
2021/06/03 12:06:01;;;;;;;4.60;3.10;;;18.50;68.80;;;;;;10573825;28;20360;-23
2021/06/03 12:11:25;;;;;;;3.20;2.90;;;18.60;68.30;;;;;;10575510;28;20666;-24
2021/06/03 12:16:50;;;;;;;4.63;3.03;;;18.60;68.10;;;;;;10577050;28;20211;-24
2021/06/03 12:22:13;;;;;;;3.13;2.83;;;18.70;68.10;;;;;;10575324;28;20199;-23
2021/06/03 12:27:36;;;;;;;5.57;2.80;;;18.70;68.20;;;;;;10576742;28;20226;-23
2021/06/03 12:33:05;;;;;;;4.43;3.50;;;18.70;68.20;;;;;;10576702;28;20278;-23
2021/06/03 12:38:31;;;;;;;5.10;2.83;;;18.80;68.20;;;;;;10579870;28;20718;-26
2021/06/03 12:43:58;;;;;;;3.10;2.80;;;18.80;68.40;;;;;;10573805;28;20203;-24
2021/06/03 12:49:23;;;;;;;7.13;2.70;;;18.80;68.30;;;;;;10574663;28;20278;-24
2021/06/03 12:54:46;;;;;;;4.90;3.20;;;18.80;67.00;;;;;;10575556;28;20219;-24
2021/06/03 13:00:10;;;;;;;8.10;3.10;;;18.90;67.30;;;;;;10574380;28;20236;-24
2021/06/03 13:05:33;;;;;;;5.77;2.97;;;19.00;65.70;;;;;;10568257;28;20712;-23
2021/06/03 13:10:56;;;;;;;4.53;2.90;;;18.90;66.20;;;;;;10558266;28;20191;-24
2021/06/03 13:16:22;;;;;;;4.13;2.50;;;18.90;66.40;;;;;;10573359;28;20222;-23
2021/06/03 13:21:52;;;;;;;2.60;2.20;;;18.90;66.80;;;;;;10568750;28;20244;-25
2021/06/03 13:27:15;;;;;;;2.60;2.37;;;18.80;67.20;;;;;;10573732;28;20219;-25
2021/06/03 13:32:37;;;;;;;3.93;2.53;;;18.80;67.90;;;;;;10573671;28;20194;-24
2021/06/03 13:38:03;;;;;;;2.70;2.10;;;18.80;67.20;;;;;;10575710;28;20601;-24
2021/06/03 13:43:27;;;;;;;3.30;2.30;;;18.80;67.60;;;;;;10575289;28;20236;-25
2021/06/03 13:48:48;;;;;;;3.23;2.10;;;18.70;67.80;;;;;;10575760;28;20804;-23
2021/06/03 13:54:18;;;;;;;2.97;2.30;;;18.70;68.10;;;;;;10570223;28;20223;-24
2021/06/03 13:59:39;;;;;;;5.30;2.40;;;18.70;68.00;;;;;;10559456;28;20264;-23
2021/06/03 14:05:10;;;;;;;4.43;2.60;;;18.70;68.30;;;;;;10610500;27;20218;-24
2021/06/03 14:10:33;;;;;;;4.60;2.43;;;18.70;67.00;;;;;;10625878;27;20194;-23
2021/06/03 14:15:55;;;;;;;2.30;2.03;;;18.70;67.60;;;;;;10624236;27;20214;-23
2021/06/03 14:21:16;;;;;;;9.20;2.30;;;18.70;67.80;;;;;;10588364;27;20203;-23
2021/06/03 14:26:40;;;;;;;4.83;2.50;;;18.70;66.70;;;;;;10577846;28;20222;-23
2021/06/03 14:32:09;;;;;;;4.37;2.50;;;18.60;67.60;;;;;;10579756;28;20252;-25
2021/06/03 14:37:31;;;;;;;6.90;2.43;;;18.60;67.80;;;;;;10581309;28;20222;-23
2021/06/03 14:43:04;;;;;;;3.93;2.47;;;18.60;68.30;;;;;;10580163;28;20673;-23
2021/06/03 14:48:28;;;;;;;5.23;2.53;;;18.60;68.00;;;;;;10579150;28;20276;-23
2021/06/03 14:53:49;;;;;;;3.37;2.53;;;18.50;68.50;;;;;;10581001;28;20276;-24
2021/06/03 14:59:12;;;;;;;4.33;2.43;;;18.50;68.30;;;;;;10581668;28;20211;-23
2021/06/03 15:04:34;;;;;;;2.40;2.00;;;18.50;68.80;;;;;;10578881;28;20207;-25
2021/06/03 15:09:55;;;;;;;4.50;2.30;;;18.50;68.40;;;;;;10580515;28;20195;-23
2021/06/03 15:15:21;;;;;;;4.50;2.23;;;18.50;68.70;;;;;;10580013;28;20218;-23
2021/06/03 15:20:46;;;;;;;3.17;2.33;;;18.50;68.90;;;;;;10579653;28;20573;-23
2021/06/03 15:26:07;;;;;;;3.83;2.20;;;18.40;68.70;;;;;;10571244;22;20242;-22
2021/06/03 15:31:30;;;;;;;5.10;2.30;;;18.40;68.50;;;;;;10538991;28;20226;-21
2021/06/03 15:36:52;;;;;;;2.20;2.00;;;18.40;68.70;;;;;;10536154;28;20211;-23
2021/06/03 15:42:14;;;;;;;2.50;2.10;;;18.40;68.70;;;;;;10533218;28;20202;-20
2021/06/03 15:47:39;;;;;;;2.70;1.90;;;18.40;69.40;;;;;;10537100;28;20212;-22
2021/06/03 15:53:02;;;;;;;2.40;2.20;;;18.40;68.90;;;;;;10537032;28;20191;-24
2021/06/03 15:58:25;;;;;;;3.67;2.30;;;18.40;68.90;;;;;;10536369;28;20240;-22
2021/06/03 16:03:47;;;;;;;2.47;2.27;;;18.40;69.10;;;;;;10536261;28;20686;-23
2021/06/03 16:09:10;;;;;;;1.87;1.77;;;18.40;69.20;;;;;;10527986;28;20196;-21
2021/06/03 16:14:31;;;;;;;3.77;2.00;;;18.40;68.90;;;;;;10536252;28;20219;-21
2021/06/03 16:19:54;;;;;;;3.00;1.83;;;18.30;68.80;;;;;;10536223;28;20219;-23
2021/06/03 16:25:16;;;;;;;2.53;2.33;;;18.40;68.90;;;;;;10535941;28;20227;-22
2021/06/03 16:30:40;;;;;;;2.40;2.20;;;18.40;69.20;;;;;;10535699;28;20191;-22
2021/06/03 16:36:04;;;;;;;2.90;1.93;;;18.40;69.10;;;;;;10536426;28;20682;-25
2021/06/03 16:41:27;;;;;;;2.03;1.77;;;18.40;68.90;;;;;;10536333;28;20192;-21
2021/06/03 16:46:49;;;;;;;2.20;2.00;;;18.30;68.90;;;;;;10534911;28;20694;-22
2021/06/03 16:52:12;;;;;;;2.80;2.43;;;18.40;69.00;;;;;;10533516;28;20199;-22
2021/06/03 16:57:33;;;;;;;3.50;2.20;;;18.30;68.80;;;;;;10535999;28;20216;-24
2021/06/03 17:02:55;;;;;;;3.23;2.00;;;18.40;69.00;;;;;;10545084;28;20206;-22
2021/06/03 17:08:19;;;;;;;1.70;1.60;;;18.30;69.10;;;;;;10577109;28;20268;-22
2021/06/03 17:13:40;;;;;;;1.93;1.83;;;18.30;69.00;;;;;;10565921;28;20187;-23
2021/06/03 17:19:03;;;;;;;2.00;1.80;;;18.30;69.00;;;;;;10539261;28;20219;-21
2021/06/03 17:24:26;;;;;;;2.20;1.80;;;18.30;69.00;;;;;;10524119;28;20191;-23
2021/06/03 17:29:47;;;;;;;2.33;2.13;;;18.40;69.20;;;;;;10542311;28;20238;-23
2021/06/03 17:35:10;;;;;;;2.77;1.97;;;18.30;69.20;;;;;;10542068;28;20211;-22
2021/06/03 17:40:34;;;;;;;2.70;1.73;;;18.30;69.20;;;;;;10542514;28;20207;-22
2021/06/03 17:45:56;;;;;;;2.40;2.03;;;18.30;69.30;;;;;;10541987;28;20683;-21
2021/06/03 17:51:18;;;;;;;3.00;1.90;;;18.30;69.30;;;;;;10540778;28;20199;-22
2021/06/03 17:56:41;;;;;;;2.43;1.83;;;18.30;69.40;;;;;;10542295;28;20218;-22
2021/06/03 18:02:04;;;;;;;3.53;1.80;;;18.30;69.60;;;;;;10540903;28;20207;-21
2021/06/03 18:07:25;;;;;;;1.97;1.67;;;18.30;69.70;;;;;;10539495;28;20215;-23
2021/06/03 18:12:48;;;;;;;2.20;1.70;;;18.30;69.60;;;;;;10539000;28;20200;-19
2021/06/03 18:18:12;;;;;;;1.70;1.60;;;18.30;69.70;;;;;;10536063;28;20224;-21
2021/06/03 18:23:34;;;;;;;2.03;1.83;;;18.30;69.80;;;;;;10530105;28;20262;-23
2021/06/03 18:28:57;;;;;;;2.23;2.03;;;18.30;69.90;;;;;;10540051;28;20230;-20
2021/06/03 18:34:19;;;;;;;6.20;2.03;;;18.30;69.90;;;;;;10538668;28;20221;-21
2021/06/03 18:39:40;;;;;;;1.90;1.80;;;18.30;69.90;;;;;;10539559;28;20223;-22
2021/06/03 18:45:07;;;;;;;1.90;1.60;;;18.30;69.90;;;;;;10498396;28;20216;-21
2021/06/03 18:50:30;;;;;;;2.70;1.57;;;18.30;69.90;;;;;;10498041;28;20180;-21
2021/06/03 18:55:52;;;;;;;1.60;1.50;;;18.30;69.90;;;;;;10497346;28;20216;-21
2021/06/03 19:01:17;;;;;;;2.07;1.67;;;18.30;69.90;;;;;;10526410;28;20196;-22
2021/06/03 19:06:39;;;;;;;2.20;2.00;;;18.30;69.90;;;;;;10539001;28;20236;-21
2021/06/03 19:12:01;;;;;;;2.00;1.83;;;18.30;70.10;;;;;;10537882;28;20191;-22
2021/06/03 19:17:24;;;;;;;1.50;1.40;;;18.30;70.10;;;;;;10534830;28;20221;-22
2021/06/03 19:22:47;;;;;;;1.90;1.70;;;18.30;69.90;;;;;;10534125;28;20244;-23
2021/06/03 19:28:09;;;;;;;1.73;1.63;;;18.30;69.90;;;;;;10534292;28;20215;-22
2021/06/03 19:33:32;;;;;;;2.10;1.77;;;18.30;70.10;;;;;;10534635;28;20195;-22
2021/06/03 19:38:53;;;;;;;1.77;1.60;;;18.30;70.30;;;;;;10536413;28;20224;-21
2021/06/03 19:44:15;;;;;;;2.03;1.60;;;18.30;70.30;;;;;;10536679;28;20226;-21
2021/06/03 19:49:38;;;;;;;1.60;1.50;;;18.30;70.30;;;;;;10535943;28;20265;-22
2021/06/03 19:55:00;;;;;;;1.87;1.77;;;18.30;70.40;;;;;;10511438;28;20224;-22
2021/06/03 20:00:25;;;;;;;1.67;1.57;;;18.30;70.60;;;;;;10530809;28;20261;-21
2021/06/03 20:05:49;;;;;;;1.60;1.50;;;18.30;70.70;;;;;;10536823;28;20226;-21
2021/06/03 20:11:11;;;;;;;2.10;1.67;;;18.30;70.60;;;;;;10538634;28;20183;-21
2021/06/03 20:16:32;;;;;;;1.70;1.60;;;18.30;70.80;;;;;;10536244;28;20226;-22
2021/06/03 20:21:55;;;;;;;2.07;1.83;;;18.30;70.70;;;;;;10537828;28;20199;-22
2021/06/03 20:27:17;;;;;;;1.60;1.40;;;18.30;70.70;;;;;;10537094;28;20219;-21
2021/06/03 20:32:39;;;;;;;1.60;1.50;;;18.20;70.70;;;;;;10526659;28;20600;-22
2021/06/03 20:38:03;;;;;;;2.00;1.60;;;18.30;70.70;;;;;;10535407;28;20219;-21
2021/06/03 20:43:26;;;;;;;2.10;1.87;;;18.30;70.90;;;;;;10535453;28;20198;-21
2021/06/03 20:48:48;;;;;;;1.60;1.50;;;18.30;70.90;;;;;;10533926;28;20212;-25
2021/06/03 20:54:13;;;;;;;2.23;1.50;;;18.30;71.00;;;;;;10534828;28;20192;-19
2021/06/03 20:59:34;;;;;;;1.80;1.70;;;18.20;70.80;;;;;;10534375;28;20212;-22
2021/06/03 21:04:56;;;;;;;1.50;1.40;;;18.30;70.90;;;;;;10534442;28;20242;-22
2021/06/03 21:10:20;;;;;;;1.50;1.40;;;18.30;70.80;;;;;;10535353;28;20188;-25
2021/06/03 21:15:42;;;;;;;1.60;1.50;;;18.30;70.80;;;;;;10531939;28;20563;-20
2021/06/03 21:21:04;;;;;;;1.60;1.50;;;18.30;70.90;;;;;;10524604;28;20222;-21
2021/06/03 21:26:27;;;;;;;1.63;1.50;;;18.30;70.90;;;;;;10543137;22;20736;-25
2021/06/03 21:31:49;;;;;;;1.57;1.47;;;18.20;70.90;;;;;;10525153;28;20590;-25
2021/06/03 21:37:11;;;;;;;1.73;1.53;;;18.20;71.00;;;;;;10524068;28;20222;-26
2021/06/03 21:42:34;;;;;;;1.47;1.37;;;18.30;71.00;;;;;;10518119;28;20563;-25
2021/06/03 21:47:57;;;;;;;1.70;1.60;;;18.30;71.00;;;;;;10518861;28;20235;-24
2021/06/03 21:53:19;;;;;;;1.80;1.70;;;18.30;71.10;;;;;;10534172;28;20194;-26
2021/06/03 21:58:42;;;;;;;1.90;1.60;;;18.30;71.10;;;;;;10533208;28;20219;-24
2021/06/03 22:04:04;;;;;;;1.63;1.53;;;18.30;71.10;;;;;;10518419;28;20200;-24
2021/06/03 22:09:25;;;;;;;2.00;1.80;;;18.20;71.20;;;;;;10533880;28;20629;-24
2021/06/03 22:14:48;;;;;;;1.60;1.50;;;18.20;71.10;;;;;;10536738;28;20624;-24
2021/06/03 22:20:13;;;;;;;1.50;1.40;;;18.30;71.20;;;;;;10541980;28;20219;-25
2021/06/03 22:25:36;;;;;;;1.83;1.73;;;18.30;71.30;;;;;;10537847;28;20705;-24
2021/06/03 22:31:00;;;;;;;1.50;1.40;;;18.30;71.20;;;;;;10539520;28;20570;-22
2021/06/03 22:36:21;;;;;;;1.70;1.60;;;18.20;71.20;;;;;;10539623;28;20591;-23
2021/06/03 22:41:44;;;;;;;2.27;1.70;;;18.30;71.50;;;;;;10538973;28;20571;-27
2021/06/03 22:47:07;;;;;;;1.50;1.40;;;18.30;71.30;;;;;;10539786;28;20242;-23
2021/06/03 22:52:28;;;;;;;1.40;1.30;;;18.30;71.40;;;;;;10539679;28;20748;-23
2021/06/03 22:57:51;;;;;;;1.77;1.60;;;18.30;71.40;;;;;;10506348;28;20220;-22
2021/06/03 23:03:14;;;;;;;1.67;1.30;;;18.30;71.40;;;;;;10498001;28;20196;-22
2021/06/03 23:08:39;;;;;;;1.83;1.40;;;18.20;71.50;;;;;;10498203;28;20213;-24
2021/06/03 23:14:01;;;;;;;1.47;1.37;;;18.30;71.50;;;;;;10498019;28;20208;-23
2021/06/03 23:19:24;;;;;;;1.50;1.40;;;18.20;71.40;;;;;;10508542;28;20211;-22
2021/06/03 23:24:45;;;;;;;2.30;1.30;;;18.20;71.50;;;;;;10537353;28;20192;-24
2021/06/03 23:30:09;;;;;;;1.40;1.30;;;18.30;71.40;;;;;;10538564;28;20187;-24
2021/06/03 23:35:33;;;;;;;1.60;1.50;;;18.30;71.60;;;;;;10537811;28;20211;-22
2021/06/03 23:40:55;;;;;;;1.43;1.33;;;18.30;72.20;;;;;;10538634;28;20216;-21
2021/06/03 23:46:17;;;;;;;1.50;1.40;;;18.20;71.60;;;;;;10523650;28;20212;-22
2021/06/03 23:51:39;;;;;;;1.40;1.30;;;18.20;71.70;;;;;;10495735;28;20195;-23
2021/06/03 23:57:01;;;;;;;1.80;1.47;;;18.30;71.90;;;;;;10499524;28;20276;-23
